Terminal Aerodrome Forecast
Issued by NWS

Home | Current Version | Previous Version | Text Only | Print | Product List | Glossary On
Versions: 1 2 3 4 5 6 7 8 9 10 11 12 13 14 15 16 17 18
000
FTUS43 KPAH 290700 AAA
TAFCGI
TAF AMD
KCGI 290711Z 2907/3006 00000KT 1SM BR MIFG SKC
      TEMPO 2908/2912 1/4SM FG VV002
     FM291300 00000KT 3SM BR SKC
     FM291500 02005KT P6SM FEW050
     FM300000 00000KT P6SM SKC=

USA.gov is the U.S. government's official web portal to all federal, state and local government web resources and services.